createdAt,value
2022-09-25T00:01:02.506Z,1.00
2022-09-25T00:03:29.774Z,1.00
2022-09-25T00:06:13.330Z,1.00
2022-09-25T00:08:40.287Z,1.00
2022-09-25T00:11:08.463Z,1.00
2022-09-25T00:15:11.303Z,1.00
2022-09-25T00:17:38.059Z,1.00
2022-09-25T00:20:05.119Z,1.00
2022-09-25T00:22:31.831Z,1.00
2022-09-25T00:24:58.881Z,1.00
2022-09-25T00:27:25.634Z,1.00
2022-09-25T00:29:53.148Z,1.00
2022-09-25T00:32:19.865Z,1.00
2022-09-25T00:36:39.678Z,1.00
2022-09-25T00:39:06.488Z,1.60
2022-09-25T00:41:33.325Z,1.00
2022-09-25T00:46:33.264Z,1.00
2022-09-25T00:50:54.288Z,1.00
2022-09-25T00:53:26.449Z,1.00
2022-09-25T00:55:53.232Z,1.00
2022-09-25T00:58:21.529Z,1.00
2022-09-25T01:04:23.639Z,1.00
2022-09-25T01:06:50.571Z,1.00
2022-09-25T01:09:17.468Z,1.00
2022-09-25T01:11:45.211Z,1.00
2022-09-25T01:14:11.973Z,1.00
2022-09-25T01:16:57.913Z,1.00
2022-09-25T01:19:46.001Z,1.30
2022-09-25T01:22:44.623Z,1.00
2022-09-25T01:25:31.797Z,1.60
2022-09-25T01:28:21.274Z,2.10
2022-09-25T01:30:50.484Z,3.30
2022-09-25T01:33:18.710Z,2.50
2022-09-25T01:36:08.742Z,2.20
2022-09-25T01:38:52.710Z,1.00
2022-09-25T01:41:30.504Z,1.00
2022-09-25T01:44:00.946Z,1.00
2022-09-25T01:46:35.128Z,1.00
2022-09-25T01:49:21.167Z,1.00
2022-09-25T01:51:51.698Z,1.00
2022-09-25T01:54:22.185Z,1.00
2022-09-25T01:56:52.006Z,1.00
2022-09-25T01:59:44.729Z,1.00
2022-09-25T02:02:16.203Z,1.00
2022-09-25T02:05:07.714Z,1.00
2022-09-25T02:07:37.086Z,1.00
2022-09-25T02:10:08.659Z,1.00
2022-09-25T02:12:40.862Z,1.00
2022-09-25T02:15:19.434Z,1.00
2022-09-25T02:18:14.354Z,1.00
2022-09-25T02:20:42.219Z,1.00
2022-09-25T02:23:13.812Z,1.50
2022-09-25T02:25:42.946Z,1.00
2022-09-25T02:28:10.031Z,1.00
2022-09-25T02:30:36.866Z,1.00
2022-09-25T02:33:03.818Z,1.00
2022-09-25T02:35:31.348Z,1.00
2022-09-25T02:37:58.172Z,1.00
2022-09-25T02:40:31.402Z,1.00
2022-09-25T02:43:20.397Z,1.00
2022-09-25T02:46:06.029Z,1.20
2022-09-25T02:49:03.198Z,1.20
2022-09-25T02:51:35.094Z,1.00
2022-09-25T02:56:40.345Z,1.00
2022-09-25T02:59:15.783Z,1.00
2022-09-25T03:06:15.950Z,1.00
2022-09-25T03:08:46.455Z,1.00
2022-09-25T03:11:15.067Z,1.00
2022-09-25T03:13:42.162Z,1.00
2022-09-25T03:16:18.779Z,1.00
2022-09-25T03:18:46.091Z,1.00
2022-09-25T03:21:12.923Z,1.00
2022-09-25T03:25:30.665Z,1.00
2022-09-25T03:27:57.463Z,1.00
2022-09-25T03:31:01.706Z,1.00
2022-09-25T03:33:41.570Z,1.00
2022-09-25T03:36:13.083Z,1.00
2022-09-25T03:40:07.614Z,1.00
2022-09-25T03:42:34.365Z,1.00
2022-09-25T03:45:02.346Z,1.00
2022-09-25T03:47:29.099Z,1.00
2022-09-25T03:51:53.230Z,1.00
2022-09-25T03:55:07.023Z,1.00
2022-09-25T03:57:34.168Z,1.00
2022-09-25T04:00:03.530Z,1.00
2022-09-25T04:02:30.299Z,1.00
2022-09-25T04:04:57.100Z,1.00
2022-09-25T04:07:25.059Z,1.00
2022-09-25T04:09:51.878Z,1.70
2022-09-25T04:12:18.627Z,1.20
2022-09-25T04:14:46.944Z,1.00
2022-09-25T04:18:29.125Z,1.00
2022-09-25T04:20:56.288Z,1.00
2022-09-25T04:23:23.000Z,1.20
2022-09-25T04:25:49.792Z,1.00
2022-09-25T04:28:16.589Z,1.00
2022-09-25T04:30:43.345Z,1.00
2022-09-25T04:33:29.139Z,1.00
2022-09-25T04:35:56.860Z,1.30
2022-09-25T04:38:23.657Z,1.50
2022-09-25T04:40:50.455Z,1.20
2022-09-25T04:43:17.248Z,1.00
2022-09-25T04:45:44.171Z,1.00
2022-09-25T04:48:11.031Z,1.00
2022-09-25T04:51:41.977Z,1.10
2022-09-25T04:54:08.848Z,2.10
2022-09-25T04:56:35.678Z,1.80
2022-09-25T04:59:02.511Z,1.70
2022-09-25T05:01:29.431Z,2.20
2022-09-25T05:03:56.408Z,1.30
2022-09-25T05:06:23.408Z,1.80
2022-09-25T05:08:50.448Z,3.00
2022-09-25T05:11:17.503Z,3.10
2022-09-25T05:13:46.846Z,3.60
2022-09-25T05:16:13.929Z,2.50
2022-09-25T05:20:28.257Z,2.70
2022-09-25T05:22:58.591Z,3.10
2022-09-25T05:25:26.235Z,3.80
2022-09-25T05:27:55.814Z,4.30
2022-09-25T05:31:04.113Z,2.90
2022-09-25T05:33:34.275Z,3.60
2022-09-25T05:40:24.244Z,4.00
2022-09-25T05:42:51.817Z,3.00
2022-09-25T05:45:19.366Z,1.20
2022-09-25T05:47:46.904Z,1.50
2022-09-25T05:50:14.731Z,2.10
2022-09-25T05:52:41.497Z,3.00
2022-09-25T05:55:09.753Z,1.40
2022-09-25T05:57:36.708Z,1.40
2022-09-25T06:00:05.473Z,2.20
2022-09-25T06:02:32.303Z,1.70
2022-09-25T06:06:37.994Z,1.50
2022-09-25T06:09:04.861Z,1.90
2022-09-25T06:11:32.013Z,2.30
2022-09-25T06:13:58.750Z,2.00
2022-09-25T06:16:26.075Z,1.90
2022-09-25T06:18:53.055Z,2.40
2022-09-25T06:21:19.835Z,2.80
2022-09-25T06:23:46.854Z,2.30
2022-09-25T06:26:14.163Z,1.70
2022-09-25T06:28:41.036Z,1.30
2022-09-25T06:31:07.909Z,1.60
2022-09-25T06:33:34.717Z,1.00
2022-09-25T06:36:01.702Z,1.50
2022-09-25T06:38:28.565Z,2.50
2022-09-25T06:40:59.532Z,2.80
2022-09-25T06:44:44.310Z,1.20
2022-09-25T06:47:17.701Z,1.00
2022-09-25T06:50:38.823Z,1.00
2022-09-25T06:53:05.608Z,1.50
2022-09-25T06:55:32.471Z,1.40
2022-09-25T06:57:59.269Z,1.70
2022-09-25T07:00:26.039Z,1.90
2022-09-25T07:03:11.255Z,1.00
2022-09-25T07:05:38.025Z,1.00
2022-09-25T07:08:04.906Z,1.00
2022-09-25T07:10:31.674Z,1.00
2022-09-25T07:12:58.884Z,1.00
2022-09-25T07:15:25.658Z,1.00
2022-09-25T07:17:52.399Z,1.20
2022-09-25T07:20:22.836Z,1.00
2022-09-25T07:22:49.612Z,1.20
2022-09-25T07:25:16.510Z,1.00
2022-09-25T07:27:43.284Z,1.00
2022-09-25T07:30:10.725Z,1.00
2022-09-25T07:33:00.176Z,1.00
2022-09-25T07:35:29.887Z,1.00
2022-09-25T07:37:57.588Z,1.00
2022-09-25T07:40:26.374Z,1.00
2022-09-25T07:42:53.478Z,1.00
2022-09-25T07:45:20.277Z,1.00
2022-09-25T07:47:47.007Z,1.00
2022-09-25T07:50:15.661Z,1.00
2022-09-25T07:52:42.672Z,1.00
2022-09-25T07:55:09.928Z,1.00
2022-09-25T07:58:35.547Z,1.00
2022-09-25T08:01:04.030Z,1.00
2022-09-25T08:03:30.872Z,1.00
2022-09-25T08:05:59.127Z,1.00
2022-09-25T08:08:27.412Z,1.00
2022-09-25T08:10:56.031Z,1.00
2022-09-25T08:13:22.950Z,1.00
2022-09-25T08:15:49.822Z,1.00
2022-09-25T08:18:16.746Z,1.00
2022-09-25T08:20:43.611Z,1.00
2022-09-25T08:23:10.381Z,1.00
2022-09-25T08:25:37.551Z,1.00
2022-09-25T08:28:04.354Z,1.00
2022-09-25T08:30:31.379Z,1.00
2022-09-25T08:34:40.151Z,1.00
2022-09-25T08:37:09.550Z,1.00
2022-09-25T08:41:19.315Z,1.00
2022-09-25T08:43:52.269Z,1.00
2022-09-25T08:46:42.061Z,1.00
2022-09-25T08:49:11.210Z,1.00
2022-09-25T08:51:47.382Z,1.00
2022-09-25T08:54:22.990Z,1.00
2022-09-25T08:56:51.646Z,1.00
2022-09-25T08:59:32.081Z,1.00
2022-09-25T09:02:19.845Z,1.00
2022-09-25T09:04:50.007Z,1.00
2022-09-25T09:07:27.877Z,1.00
2022-09-25T09:10:07.657Z,1.00
2022-09-25T09:12:36.745Z,1.00
2022-09-25T09:16:33.854Z,1.00
2022-09-25T09:20:21.316Z,1.00
2022-09-25T09:24:37.911Z,1.00
2022-09-25T09:27:33.779Z,1.00
2022-09-25T09:30:20.679Z,1.00
2022-09-25T09:33:06.335Z,1.00
2022-09-25T09:38:00.890Z,1.00
2022-09-25T09:40:42.461Z,1.00
2022-09-25T09:43:31.829Z,1.00
2022-09-25T09:46:15.436Z,1.00
2022-09-25T09:49:20.432Z,1.00
2022-09-25T09:52:00.555Z,1.00
2022-09-25T09:54:45.812Z,1.00
2022-09-25T09:57:22.694Z,1.00
2022-09-25T10:02:49.489Z,1.00
2022-09-25T10:05:22.538Z,1.00
2022-09-25T10:07:49.373Z,1.00
2022-09-25T10:10:16.855Z,1.00
2022-09-25T10:12:48.423Z,1.00
2022-09-25T10:15:30.283Z,1.00
2022-09-25T10:17:58.832Z,1.00
2022-09-25T10:20:35.834Z,1.00
2022-09-25T10:23:02.982Z,1.00
2022-09-25T10:25:38.265Z,1.00
2022-09-25T10:28:27.107Z,1.00
2022-09-25T10:30:54.141Z,1.00
2022-09-25T10:33:22.675Z,1.00
2022-09-25T10:35:51.281Z,1.00
2022-09-25T10:38:27.644Z,1.00
2022-09-25T10:42:49.477Z,1.00
2022-09-25T10:45:20.963Z,1.00
2022-09-25T10:48:06.132Z,1.00
2022-09-25T10:50:32.980Z,1.00
2022-09-25T10:53:00.014Z,1.00
2022-09-25T10:55:29.230Z,1.00
2022-09-25T10:58:13.238Z,1.00
2022-09-25T11:00:47.008Z,1.00
2022-09-25T11:03:32.311Z,1.00
2022-09-25T11:06:10.806Z,1.00
2022-09-25T11:08:39.299Z,1.00
2022-09-25T11:11:08.478Z,1.00
2022-09-25T11:13:46.992Z,1.00
2022-09-25T11:16:14.141Z,1.00
2022-09-25T11:18:46.504Z,1.00
2022-09-25T11:21:28.943Z,1.00
2022-09-25T11:23:58.533Z,1.00
2022-09-25T11:26:43.970Z,1.00
2022-09-25T11:29:23.582Z,1.00
2022-09-25T11:31:56.371Z,1.00
2022-09-25T11:34:52.004Z,1.00
2022-09-25T11:37:26.714Z,1.00
2022-09-25T11:42:35.431Z,1.00
2022-09-25T11:47:54.165Z,1.00
2022-09-25T11:50:22.599Z,1.00
2022-09-25T11:53:02.032Z,1.00
2022-09-25T11:55:54.294Z,1.00
2022-09-25T11:58:49.532Z,1.00
2022-09-25T12:01:22.608Z,1.00
2022-09-25T12:03:57.183Z,1.00
2022-09-25T12:06:27.024Z,1.00
2022-09-25T12:12:02.496Z,1.00
2022-09-25T12:14:39.898Z,1.00
2022-09-25T12:17:09.451Z,1.00
2022-09-25T12:19:53.279Z,1.00
2022-09-25T12:22:45.144Z,1.00
2022-09-25T12:25:38.326Z,1.00
2022-09-25T12:28:26.102Z,1.00
2022-09-25T12:31:04.744Z,1.00
2022-09-25T12:33:38.839Z,1.00
2022-09-25T12:36:29.228Z,1.00
2022-09-25T12:39:10.071Z,1.00
2022-09-25T12:41:41.461Z,1.00
2022-09-25T12:44:37.837Z,1.00
2022-09-25T12:47:27.142Z,1.00
2022-09-25T12:50:02.873Z,1.00
2022-09-25T12:54:25.756Z,1.00
2022-09-25T12:56:52.514Z,1.00
2022-09-25T12:59:46.063Z,1.00
2022-09-25T13:02:18.202Z,1.00
2022-09-25T13:05:03.854Z,1.00
2022-09-25T13:07:44.138Z,1.00
2022-09-25T13:10:45.206Z,1.00
2022-09-25T13:13:20.293Z,1.00
2022-09-25T13:16:00.282Z,1.00
2022-09-25T13:18:30.166Z,1.00
2022-09-25T13:21:16.150Z,1.00
2022-09-25T13:23:42.953Z,1.00
2022-09-25T13:26:18.051Z,1.00
2022-09-25T13:29:15.173Z,1.00
2022-09-25T13:31:44.720Z,1.00
2022-09-25T13:34:15.934Z,1.00
2022-09-25T13:36:49.391Z,1.00
2022-09-25T13:39:37.704Z,1.00
2022-09-25T13:42:14.214Z,1.00
2022-09-25T13:44:41.190Z,1.00
2022-09-25T13:47:38.579Z,1.00
2022-09-25T13:50:11.539Z,1.00
2022-09-25T13:52:41.147Z,1.00
2022-09-25T13:55:19.453Z,1.00
2022-09-25T13:58:01.874Z,1.00
2022-09-25T14:00:53.678Z,1.00
2022-09-25T14:03:46.842Z,1.00
2022-09-25T14:06:17.574Z,1.00
2022-09-25T14:08:44.401Z,1.00
2022-09-25T14:11:12.432Z,1.00
2022-09-25T14:13:46.466Z,1.00
2022-09-25T14:16:30.392Z,1.00
2022-09-25T14:18:58.187Z,1.00
2022-09-25T14:21:26.440Z,1.00
2022-09-25T14:23:54.978Z,1.00
2022-09-25T14:26:24.845Z,1.00
2022-09-25T14:28:52.590Z,1.00
2022-09-25T14:31:31.879Z,1.00
2022-09-25T14:34:26.328Z,1.00
2022-09-25T14:37:11.295Z,1.00
2022-09-25T14:40:05.120Z,1.00
2022-09-25T14:42:36.143Z,1.00
2022-09-25T14:45:23.746Z,1.00
2022-09-25T14:47:51.581Z,1.00
2022-09-25T14:50:23.948Z,1.00
2022-09-25T14:52:54.235Z,1.00
2022-09-25T14:55:21.612Z,1.00
2022-09-25T14:57:48.575Z,1.00
2022-09-25T15:00:24.689Z,1.00
2022-09-25T15:02:53.276Z,1.00
2022-09-25T15:05:35.955Z,1.00
2022-09-25T15:08:02.968Z,1.00
2022-09-25T15:10:35.390Z,1.00
2022-09-25T15:13:18.242Z,1.00
2022-09-25T15:16:06.269Z,1.00
2022-09-25T15:18:33.388Z,1.00
2022-09-25T15:21:00.222Z,1.00
2022-09-25T15:23:30.546Z,1.00
2022-09-25T15:25:59.810Z,1.00
2022-09-25T15:28:27.012Z,1.00
2022-09-25T15:31:04.433Z,1.00
2022-09-25T15:33:36.093Z,1.00
2022-09-25T15:36:22.844Z,1.00
2022-09-25T15:38:58.208Z,1.00
2022-09-25T15:41:25.020Z,1.00
2022-09-25T15:43:51.876Z,1.00
2022-09-25T15:46:37.799Z,1.00
2022-09-25T15:49:04.660Z,1.00
2022-09-25T15:51:33.604Z,1.00
2022-09-25T15:54:02.383Z,1.00
2022-09-25T15:56:45.187Z,1.00
2022-09-25T15:59:22.966Z,1.00
2022-09-25T16:02:09.010Z,1.00
2022-09-25T16:04:49.562Z,1.00
2022-09-25T16:07:36.351Z,1.00
2022-09-25T16:10:11.676Z,1.00
2022-09-25T16:14:29.385Z,1.00
2022-09-25T16:16:57.358Z,1.00
2022-09-25T16:19:27.816Z,1.00
2022-09-25T16:21:54.678Z,1.00
2022-09-25T16:24:26.426Z,1.00
2022-09-25T16:27:03.624Z,1.00
2022-09-25T16:29:31.844Z,1.00
2022-09-25T16:32:06.730Z,1.00
2022-09-25T16:35:20.699Z,1.00
2022-09-25T16:37:50.321Z,1.00
2022-09-25T16:40:29.155Z,1.00
2022-09-25T16:42:57.269Z,1.00
2022-09-25T16:45:34.393Z,1.00
2022-09-25T16:48:21.969Z,1.00
2022-09-25T16:50:48.819Z,1.00
2022-09-25T16:53:15.694Z,1.00
2022-09-25T16:55:53.925Z,1.00
2022-09-25T16:58:27.863Z,1.00
2022-09-25T17:00:54.835Z,1.00
2022-09-25T17:03:21.674Z,1.00
2022-09-25T17:05:48.558Z,1.00
2022-09-25T17:08:17.838Z,1.00
2022-09-25T17:10:44.990Z,1.00
2022-09-25T17:13:13.555Z,1.00
2022-09-25T17:15:40.610Z,1.00
2022-09-25T17:18:19.815Z,1.00
2022-09-25T17:20:46.951Z,1.00
2022-09-25T17:23:14.077Z,1.00
2022-09-25T17:25:48.043Z,1.00
2022-09-25T17:28:15.111Z,1.00
2022-09-25T17:30:42.431Z,1.00
2022-09-25T17:33:17.872Z,1.00
2022-09-25T17:36:04.866Z,1.00
2022-09-25T17:38:34.442Z,1.00
2022-09-25T17:41:06.340Z,1.00
2022-09-25T17:43:33.430Z,1.00
2022-09-25T17:46:01.100Z,1.00
2022-09-25T17:48:30.108Z,1.00
2022-09-25T17:51:04.591Z,1.00
2022-09-25T17:53:32.602Z,1.00
2022-09-25T17:56:00.118Z,1.00
2022-09-25T17:58:28.219Z,1.00
2022-09-25T18:00:55.796Z,1.00
2022-09-25T18:03:22.731Z,1.00
2022-09-25T18:05:49.693Z,1.00
2022-09-25T18:08:17.962Z,1.00
2022-09-25T18:10:45.241Z,1.00
2022-09-25T18:13:15.419Z,1.00
2022-09-25T18:15:49.454Z,1.00
2022-09-25T18:18:16.337Z,1.00
2022-09-25T18:21:05.708Z,1.00
2022-09-25T18:23:35.747Z,1.00
2022-09-25T18:26:03.953Z,1.00
2022-09-25T18:28:31.218Z,1.00
2022-09-25T18:30:58.718Z,1.00
2022-09-25T18:33:25.768Z,1.00
2022-09-25T18:35:52.911Z,1.00
2022-09-25T18:38:19.699Z,1.00
2022-09-25T18:40:46.673Z,1.00
2022-09-25T18:43:13.693Z,1.00
2022-09-25T18:45:42.217Z,1.00
2022-09-25T18:48:09.120Z,1.00
2022-09-25T18:50:36.025Z,1.00
2022-09-25T18:53:02.917Z,1.00
2022-09-25T18:55:29.875Z,1.00
2022-09-25T18:57:57.344Z,1.00
2022-09-25T19:00:24.153Z,1.00
2022-09-25T19:02:51.132Z,1.00
2022-09-25T19:05:58.712Z,1.00
2022-09-25T19:08:25.739Z,1.00
2022-09-25T19:10:52.565Z,1.00
2022-09-25T19:13:19.450Z,1.00
2022-09-25T19:15:46.297Z,1.00
2022-09-25T19:18:13.654Z,1.00
2022-09-25T19:20:54.385Z,1.00
2022-09-25T19:25:56.480Z,1.00
2022-09-25T19:28:23.786Z,1.00
2022-09-25T19:31:07.120Z,1.00
2022-09-25T19:33:35.833Z,1.00
2022-09-25T19:36:06.233Z,1.00
2022-09-25T19:38:37.005Z,1.00
2022-09-25T19:41:04.957Z,1.00
2022-09-25T19:43:34.612Z,1.00
2022-09-25T19:46:02.234Z,1.00
2022-09-25T19:48:29.093Z,1.00
2022-09-25T19:50:56.060Z,1.00
2022-09-25T19:53:22.882Z,1.00
2022-09-25T19:55:55.759Z,1.00
2022-09-25T19:58:25.746Z,1.00
2022-09-25T20:00:53.672Z,1.00
2022-09-25T20:03:20.723Z,1.00
2022-09-25T20:05:49.087Z,1.00
2022-09-25T20:08:16.386Z,1.00
2022-09-25T20:10:43.429Z,1.00
2022-09-25T20:13:32.176Z,1.00
2022-09-25T20:16:10.358Z,1.00
2022-09-25T20:18:37.229Z,1.00
2022-09-25T20:21:05.419Z,1.00
2022-09-25T20:23:32.300Z,1.00
2022-09-25T20:26:12.653Z,1.00
2022-09-25T20:28:40.172Z,1.00
2022-09-25T20:31:07.982Z,1.00
2022-09-25T20:33:38.056Z,1.00
2022-09-25T20:38:16.944Z,1.00
2022-09-25T20:40:43.807Z,1.00
2022-09-25T20:43:10.590Z,1.00
2022-09-25T20:45:37.479Z,1.00
2022-09-25T20:48:04.594Z,1.00
2022-09-25T20:50:31.632Z,1.00
2022-09-25T20:52:58.602Z,1.00
2022-09-25T20:55:25.416Z,1.00
2022-09-25T20:57:52.324Z,1.00
2022-09-25T21:00:19.651Z,1.00
2022-09-25T21:02:46.541Z,1.00
2022-09-25T21:06:43.501Z,1.00
2022-09-25T21:09:21.435Z,1.00
2022-09-25T21:11:48.679Z,1.00
2022-09-25T21:14:20.198Z,1.00
2022-09-25T21:16:47.507Z,1.00
2022-09-25T21:19:15.853Z,1.00
2022-09-25T21:21:42.739Z,1.00
2022-09-25T21:24:14.659Z,1.00
2022-09-25T21:26:41.600Z,1.00
2022-09-25T21:29:09.547Z,1.00
2022-09-25T21:31:43.753Z,1.00
2022-09-25T21:34:14.732Z,1.00
2022-09-25T21:36:41.952Z,1.00
2022-09-25T21:39:08.928Z,1.00
2022-09-25T21:41:35.881Z,1.00
2022-09-25T21:44:05.527Z,1.00
2022-09-25T21:46:32.838Z,1.00
2022-09-25T21:49:01.864Z,1.00
2022-09-25T21:51:32.345Z,1.00
2022-09-25T21:54:01.121Z,1.00
2022-09-25T21:56:29.810Z,1.00
2022-09-25T21:58:57.476Z,1.00
2022-09-25T22:01:28.863Z,1.00
2022-09-25T22:03:56.771Z,1.00
2022-09-25T22:06:30.234Z,1.00
2022-09-25T22:08:59.080Z,1.00
2022-09-25T22:11:25.980Z,1.00
2022-09-25T22:13:53.043Z,1.00
2022-09-25T22:16:31.282Z,1.00
2022-09-25T22:19:05.070Z,1.00
2022-09-25T22:21:32.314Z,1.00
2022-09-25T22:23:59.369Z,1.00
2022-09-25T22:26:26.697Z,1.00
2022-09-25T22:28:53.621Z,1.00
2022-09-25T22:31:22.807Z,1.00
2022-09-25T22:33:49.860Z,1.00
2022-09-25T22:36:16.651Z,1.00
2022-09-25T22:38:43.435Z,1.00
2022-09-25T22:41:11.888Z,1.00
2022-09-25T22:43:39.057Z,1.00
2022-09-25T22:46:06.252Z,1.00
2022-09-25T22:48:33.217Z,1.00
2022-09-25T22:51:04.954Z,1.00
2022-09-25T22:53:32.649Z,1.00
2022-09-25T22:56:16.328Z,1.00
2022-09-25T22:58:44.131Z,1.00
2022-09-25T23:01:12.723Z,1.00
2022-09-25T23:03:39.562Z,1.00
2022-09-25T23:06:06.634Z,1.00
2022-09-25T23:08:33.518Z,1.00
2022-09-25T23:11:07.888Z,1.00
2022-09-25T23:13:35.827Z,1.00
2022-09-25T23:16:07.251Z,1.00
2022-09-25T23:18:36.758Z,1.00
2022-09-25T23:21:04.046Z,1.00
2022-09-25T23:23:30.875Z,1.00
2022-09-25T23:26:03.463Z,1.00
2022-09-25T23:28:33.444Z,1.00
2022-09-25T23:31:11.025Z,1.00
2022-09-25T23:33:38.167Z,1.00
2022-09-25T23:36:06.856Z,1.00
2022-09-25T23:38:34.124Z,1.00
2022-09-25T23:41:01.541Z,1.00
2022-09-25T23:43:28.687Z,1.00
2022-09-25T23:45:55.950Z,1.00
2022-09-25T23:48:22.842Z,1.00
2022-09-25T23:50:51.209Z,1.00
2022-09-25T23:53:18.046Z,1.00
2022-09-25T23:55:45.027Z,1.00
2022-09-25T23:58:12.305Z,1.00
